sensor_id;sensor_type;location;lat;lon;timestamp;temperature;humidity
39957;DHT22;48483;44.640;7.494;2022-12-07T00:01:46;4.40;99.90
39957;DHT22;48483;44.640;7.494;2022-12-07T00:04:14;4.30;99.90
39957;DHT22;48483;44.640;7.494;2022-12-07T00:06:43;4.40;99.90
39957;DHT22;48483;44.640;7.494;2022-12-07T00:09:12;4.30;99.90
39957;DHT22;48483;44.640;7.494;2022-12-07T00:11:40;4.40;99.90
39957;DHT22;48483;44.640;7.494;2022-12-07T00:14:11;4.30;99.90
39957;DHT22;48483;44.640;7.494;2022-12-07T00:16:39;4.20;99.90
39957;DHT22;48483;44.640;7.494;2022-12-07T00:19:05;4.20;99.90
39957;DHT22;48483;44.640;7.494;2022-12-07T00:21:33;4.30;99.90
39957;DHT22;48483;44.640;7.494;2022-12-07T00:24:01;4.30;99.90
39957;DHT22;48483;44.640;7.494;2022-12-07T00:26:29;4.40;99.90
39957;DHT22;48483;44.640;7.494;2022-12-07T00:29:03;4.40;99.90
39957;DHT22;48483;44.640;7.494;2022-12-07T00:31:33;4.40;99.90
39957;DHT22;48483;44.640;7.494;2022-12-07T00:34:01;4.30;99.90
39957;DHT22;48483;44.640;7.494;2022-12-07T00:36:28;4.40;99.90
39957;DHT22;48483;44.640;7.494;2022-12-07T00:38:55;4.30;99.90
39957;DHT22;48483;44.640;7.494;2022-12-07T00:41:25;4.30;99.90
39957;DHT22;48483;44.640;7.494;2022-12-07T00:43:52;4.30;99.90
39957;DHT22;48483;44.640;7.494;2022-12-07T00:46:21;4.20;99.90
39957;DHT22;48483;44.640;7.494;2022-12-07T00:48:50;4.20;99.90
39957;DHT22;48483;44.640;7.494;2022-12-07T00:51:18;4.20;99.90
39957;DHT22;48483;44.640;7.494;2022-12-07T00:53:45;4.20;99.90
39957;DHT22;48483;44.640;7.494;2022-12-07T00:56:15;4.20;99.90
39957;DHT22;48483;44.640;7.494;2022-12-07T00:58:41;4.20;99.90
39957;DHT22;48483;44.640;7.494;2022-12-07T01:01:10;4.20;99.90
39957;DHT22;48483;44.640;7.494;2022-12-07T01:03:38;4.20;99.90
39957;DHT22;48483;44.640;7.494;2022-12-07T01:06:05;4.20;99.90
39957;DHT22;48483;44.640;7.494;2022-12-07T01:08:32;4.20;99.90
39957;DHT22;48483;44.640;7.494;2022-12-07T01:10:59;4.20;99.90
39957;DHT22;48483;44.640;7.494;2022-12-07T01:13:26;4.20;99.90
39957;DHT22;48483;44.640;7.494;2022-12-07T01:15:57;4.10;99.90
39957;DHT22;48483;44.640;7.494;2022-12-07T01:18:25;4.10;99.90
39957;DHT22;48483;44.640;7.494;2022-12-07T01:20:59;4.10;99.90
39957;DHT22;48483;44.640;7.494;2022-12-07T01:23:27;4.10;99.90
39957;DHT22;48483;44.640;7.494;2022-12-07T01:25:55;4.00;99.90
39957;DHT22;48483;44.640;7.494;2022-12-07T01:28:21;3.90;99.90
39957;DHT22;48483;44.640;7.494;2022-12-07T01:30:55;3.90;99.90
39957;DHT22;48483;44.640;7.494;2022-12-07T01:33:22;4.00;99.90
39957;DHT22;48483;44.640;7.494;2022-12-07T01:35:49;4.00;99.90
39957;DHT22;48483;44.640;7.494;2022-12-07T01:38:17;4.10;99.90
39957;DHT22;48483;44.640;7.494;2022-12-07T01:40:43;4.00;99.90
39957;DHT22;48483;44.640;7.494;2022-12-07T01:43:15;3.90;99.90
39957;DHT22;48483;44.640;7.494;2022-12-07T01:45:42;3.90;99.90
39957;DHT22;48483;44.640;7.494;2022-12-07T01:48:11;3.90;99.90
39957;DHT22;48483;44.640;7.494;2022-12-07T01:50:40;4.00;99.90
39957;DHT22;48483;44.640;7.494;2022-12-07T01:53:09;4.00;99.90
39957;DHT22;48483;44.640;7.494;2022-12-07T01:55:42;4.00;99.90
39957;DHT22;48483;44.640;7.494;2022-12-07T01:58:11;4.10;99.90
39957;DHT22;48483;44.640;7.494;2022-12-07T02:00:39;4.10;99.90
39957;DHT22;48483;44.640;7.494;2022-12-07T02:03:09;4.10;99.90
39957;DHT22;48483;44.640;7.494;2022-12-07T02:05:38;4.10;99.90
39957;DHT22;48483;44.640;7.494;2022-12-07T02:08:07;4.10;99.90
39957;DHT22;48483;44.640;7.494;2022-12-07T02:10:35;4.10;99.90
39957;DHT22;48483;44.640;7.494;2022-12-07T02:13:06;4.10;99.90
39957;DHT22;48483;44.640;7.494;2022-12-07T02:15:51;4.10;99.90
39957;DHT22;48483;44.640;7.494;2022-12-07T02:18:26;4.10;99.90
39957;DHT22;48483;44.640;7.494;2022-12-07T02:21:01;4.10;99.90
39957;DHT22;48483;44.640;7.494;2022-12-07T02:29:39;4.10;99.90
39957;DHT22;48483;44.640;7.494;2022-12-07T02:32:13;4.10;99.90
39957;DHT22;48483;44.640;7.494;2022-12-07T02:34:46;4.10;99.90
39957;DHT22;48483;44.640;7.494;2022-12-07T02:37:22;4.10;99.90
39957;DHT22;48483;44.640;7.494;2022-12-07T02:39:55;4.00;99.90
39957;DHT22;48483;44.640;7.494;2022-12-07T02:42:26;4.00;99.90
39957;DHT22;48483;44.640;7.494;2022-12-07T02:44:56;3.90;99.90
39957;DHT22;48483;44.640;7.494;2022-12-07T02:47:25;4.00;99.90
39957;DHT22;48483;44.640;7.494;2022-12-07T02:49:52;3.90;99.90
39957;DHT22;48483;44.640;7.494;2022-12-07T02:52:19;3.90;99.90
39957;DHT22;48483;44.640;7.494;2022-12-07T02:54:46;3.90;99.90
39957;DHT22;48483;44.640;7.494;2022-12-07T02:57:35;4.00;99.90
39957;DHT22;48483;44.640;7.494;2022-12-07T03:00:07;4.00;99.90
39957;DHT22;48483;44.640;7.494;2022-12-07T03:02:42;4.00;99.90
39957;DHT22;48483;44.640;7.494;2022-12-07T03:05:26;4.00;99.90
39957;DHT22;48483;44.640;7.494;2022-12-07T03:08:00;4.10;99.90
39957;DHT22;48483;44.640;7.494;2022-12-07T03:10:35;4.10;99.90
39957;DHT22;48483;44.640;7.494;2022-12-07T03:13:07;4.10;99.90
39957;DHT22;48483;44.640;7.494;2022-12-07T03:15:40;4.00;99.90
39957;DHT22;48483;44.640;7.494;2022-12-07T03:18:12;4.00;99.90
39957;DHT22;48483;44.640;7.494;2022-12-07T03:20:42;4.00;99.90
39957;DHT22;48483;44.640;7.494;2022-12-07T03:23:12;4.00;99.90
39957;DHT22;48483;44.640;7.494;2022-12-07T03:25:45;4.00;99.90
39957;DHT22;48483;44.640;7.494;2022-12-07T03:28:15;3.90;99.90
39957;DHT22;48483;44.640;7.494;2022-12-07T03:30:47;3.80;99.90
39957;DHT22;48483;44.640;7.494;2022-12-07T03:33:18;3.80;99.90
39957;DHT22;48483;44.640;7.494;2022-12-07T03:35:51;3.80;99.90
39957;DHT22;48483;44.640;7.494;2022-12-07T03:38:22;3.70;99.90
39957;DHT22;48483;44.640;7.494;2022-12-07T03:40:55;3.70;99.90
39957;DHT22;48483;44.640;7.494;2022-12-07T03:43:24;3.70;99.90
39957;DHT22;48483;44.640;7.494;2022-12-07T03:45:59;3.70;99.90
39957;DHT22;48483;44.640;7.494;2022-12-07T03:48:32;3.60;99.90
39957;DHT22;48483;44.640;7.494;2022-12-07T03:51:09;3.60;99.90
39957;DHT22;48483;44.640;7.494;2022-12-07T03:53:42;3.50;99.90
39957;DHT22;48483;44.640;7.494;2022-12-07T03:56:11;3.60;99.90
39957;DHT22;48483;44.640;7.494;2022-12-07T03:58:40;3.50;99.90
39957;DHT22;48483;44.640;7.494;2022-12-07T04:01:10;3.50;99.90
39957;DHT22;48483;44.640;7.494;2022-12-07T04:03:36;3.40;99.90
39957;DHT22;48483;44.640;7.494;2022-12-07T04:06:03;3.40;99.90
39957;DHT22;48483;44.640;7.494;2022-12-07T04:08:30;3.30;99.90
39957;DHT22;48483;44.640;7.494;2022-12-07T04:10:57;3.40;99.90
39957;DHT22;48483;44.640;7.494;2022-12-07T04:13:23;3.50;99.90
39957;DHT22;48483;44.640;7.494;2022-12-07T04:15:50;3.50;99.90
39957;DHT22;48483;44.640;7.494;2022-12-07T04:18:18;3.50;99.90
39957;DHT22;48483;44.640;7.494;2022-12-07T04:20:45;3.50;99.90
39957;DHT22;48483;44.640;7.494;2022-12-07T04:23:12;3.50;99.90
39957;DHT22;48483;44.640;7.494;2022-12-07T04:25:39;3.50;99.90
39957;DHT22;48483;44.640;7.494;2022-12-07T04:28:06;3.50;99.90
39957;DHT22;48483;44.640;7.494;2022-12-07T04:30:33;3.50;99.90
39957;DHT22;48483;44.640;7.494;2022-12-07T04:33:00;3.50;99.90
39957;DHT22;48483;44.640;7.494;2022-12-07T04:35:28;3.50;99.90
39957;DHT22;48483;44.640;7.494;2022-12-07T04:37:54;3.60;99.90
39957;DHT22;48483;44.640;7.494;2022-12-07T04:40:21;3.60;99.90
39957;DHT22;48483;44.640;7.494;2022-12-07T04:42:47;3.60;99.90
39957;DHT22;48483;44.640;7.494;2022-12-07T04:45:14;3.60;99.90
39957;DHT22;48483;44.640;7.494;2022-12-07T04:47:41;3.60;99.90
39957;DHT22;48483;44.640;7.494;2022-12-07T04:50:09;3.60;99.90
39957;DHT22;48483;44.640;7.494;2022-12-07T04:52:37;3.60;99.90
39957;DHT22;48483;44.640;7.494;2022-12-07T04:55:04;3.60;99.90
39957;DHT22;48483;44.640;7.494;2022-12-07T04:57:31;3.60;99.90
39957;DHT22;48483;44.640;7.494;2022-12-07T04:59:58;3.60;99.90
39957;DHT22;48483;44.640;7.494;2022-12-07T05:02:24;3.60;99.90
39957;DHT22;48483;44.640;7.494;2022-12-07T05:04:51;3.60;99.90
39957;DHT22;48483;44.640;7.494;2022-12-07T05:07:18;3.50;99.90
39957;DHT22;48483;44.640;7.494;2022-12-07T05:09:46;3.50;99.90
39957;DHT22;48483;44.640;7.494;2022-12-07T05:12:13;3.50;99.90
39957;DHT22;48483;44.640;7.494;2022-12-07T05:14:39;3.50;99.90
39957;DHT22;48483;44.640;7.494;2022-12-07T05:17:06;3.40;99.90
39957;DHT22;48483;44.640;7.494;2022-12-07T05:19:32;3.40;99.90
39957;DHT22;48483;44.640;7.494;2022-12-07T05:21:59;3.40;99.90
39957;DHT22;48483;44.640;7.494;2022-12-07T05:24:26;3.40;99.90
39957;DHT22;48483;44.640;7.494;2022-12-07T05:26:54;3.30;99.90
39957;DHT22;48483;44.640;7.494;2022-12-07T05:29:20;3.30;99.90
39957;DHT22;48483;44.640;7.494;2022-12-07T05:31:47;3.20;99.90
39957;DHT22;48483;44.640;7.494;2022-12-07T05:34:13;3.20;99.90
39957;DHT22;48483;44.640;7.494;2022-12-07T05:36:40;3.20;99.90
39957;DHT22;48483;44.640;7.494;2022-12-07T05:39:07;3.20;99.90
39957;DHT22;48483;44.640;7.494;2022-12-07T05:41:33;3.20;99.90
39957;DHT22;48483;44.640;7.494;2022-12-07T05:44:20;3.20;99.90
39957;DHT22;48483;44.640;7.494;2022-12-07T05:46:47;3.20;99.90
39957;DHT22;48483;44.640;7.494;2022-12-07T05:49:13;3.20;99.90
39957;DHT22;48483;44.640;7.494;2022-12-07T05:51:40;3.20;99.90
39957;DHT22;48483;44.640;7.494;2022-12-07T05:54:06;3.20;99.90
39957;DHT22;48483;44.640;7.494;2022-12-07T05:56:33;3.20;99.90
39957;DHT22;48483;44.640;7.494;2022-12-07T05:58:59;3.20;99.90
39957;DHT22;48483;44.640;7.494;2022-12-07T06:01:46;3.20;99.90
39957;DHT22;48483;44.640;7.494;2022-12-07T06:04:13;3.20;99.90
39957;DHT22;48483;44.640;7.494;2022-12-07T06:06:39;3.20;99.90
39957;DHT22;48483;44.640;7.494;2022-12-07T06:09:06;3.20;99.90
39957;DHT22;48483;44.640;7.494;2022-12-07T06:11:33;3.20;99.90
39957;DHT22;48483;44.640;7.494;2022-12-07T06:14:18;3.20;99.90
39957;DHT22;48483;44.640;7.494;2022-12-07T06:16:46;3.20;99.90
39957;DHT22;48483;44.640;7.494;2022-12-07T06:19:13;3.30;99.90
39957;DHT22;48483;44.640;7.494;2022-12-07T06:21:40;3.20;99.90
39957;DHT22;48483;44.640;7.494;2022-12-07T06:24:07;3.20;99.90
39957;DHT22;48483;44.640;7.494;2022-12-07T06:26:33;3.30;99.90
39957;DHT22;48483;44.640;7.494;2022-12-07T06:29:00;3.30;99.90
39957;DHT22;48483;44.640;7.494;2022-12-07T06:31:27;3.30;99.90
39957;DHT22;48483;44.640;7.494;2022-12-07T06:33:58;3.20;99.90
39957;DHT22;48483;44.640;7.494;2022-12-07T06:36:25;3.30;99.90
39957;DHT22;48483;44.640;7.494;2022-12-07T06:38:52;3.20;99.90
39957;DHT22;48483;44.640;7.494;2022-12-07T06:41:18;3.30;99.90
39957;DHT22;48483;44.640;7.494;2022-12-07T06:43:45;3.20;99.90
39957;DHT22;48483;44.640;7.494;2022-12-07T06:46:12;3.20;99.90
39957;DHT22;48483;44.640;7.494;2022-12-07T06:48:38;3.20;99.90
39957;DHT22;48483;44.640;7.494;2022-12-07T06:51:06;3.10;99.90
39957;DHT22;48483;44.640;7.494;2022-12-07T06:53:33;3.00;99.90
39957;DHT22;48483;44.640;7.494;2022-12-07T06:56:00;3.00;99.90
39957;DHT22;48483;44.640;7.494;2022-12-07T06:58:27;3.00;99.90
39957;DHT22;48483;44.640;7.494;2022-12-07T07:00:53;3.00;99.90
39957;DHT22;48483;44.640;7.494;2022-12-07T07:03:20;3.00;99.90
39957;DHT22;48483;44.640;7.494;2022-12-07T07:05:47;3.00;99.90
39957;DHT22;48483;44.640;7.494;2022-12-07T07:08:15;2.90;99.90
39957;DHT22;48483;44.640;7.494;2022-12-07T07:10:42;3.00;99.90
39957;DHT22;48483;44.640;7.494;2022-12-07T07:13:09;3.10;99.90
39957;DHT22;48483;44.640;7.494;2022-12-07T07:15:38;3.10;99.90
39957;DHT22;48483;44.640;7.494;2022-12-07T07:18:05;3.00;99.90
39957;DHT22;48483;44.640;7.494;2022-12-07T07:20:31;3.00;99.90
39957;DHT22;48483;44.640;7.494;2022-12-07T07:22:58;3.10;99.90
39957;DHT22;48483;44.640;7.494;2022-12-07T07:25:26;3.10;99.90
39957;DHT22;48483;44.640;7.494;2022-12-07T07:27:53;3.20;99.90
39957;DHT22;48483;44.640;7.494;2022-12-07T07:30:20;3.20;99.90
39957;DHT22;48483;44.640;7.494;2022-12-07T07:32:46;3.30;99.90
39957;DHT22;48483;44.640;7.494;2022-12-07T07:35:13;3.40;99.90
39957;DHT22;48483;44.640;7.494;2022-12-07T07:37:40;3.30;99.90
39957;DHT22;48483;44.640;7.494;2022-12-07T07:40:08;3.30;99.90
39957;DHT22;48483;44.640;7.494;2022-12-07T07:42:36;3.20;99.90
39957;DHT22;48483;44.640;7.494;2022-12-07T07:45:03;3.30;99.90
39957;DHT22;48483;44.640;7.494;2022-12-07T07:47:30;3.40;99.90
39957;DHT22;48483;44.640;7.494;2022-12-07T07:49:57;3.40;99.90
39957;DHT22;48483;44.640;7.494;2022-12-07T07:52:24;3.40;99.90
39957;DHT22;48483;44.640;7.494;2022-12-07T07:54:50;3.50;99.90
39957;DHT22;48483;44.640;7.494;2022-12-07T07:57:17;3.50;99.90
39957;DHT22;48483;44.640;7.494;2022-12-07T07:59:45;3.60;99.90
39957;DHT22;48483;44.640;7.494;2022-12-07T08:02:14;3.70;99.90
39957;DHT22;48483;44.640;7.494;2022-12-07T08:04:41;3.80;99.90
39957;DHT22;48483;44.640;7.494;2022-12-07T08:07:08;3.90;99.90
39957;DHT22;48483;44.640;7.494;2022-12-07T08:09:34;3.90;99.90
39957;DHT22;48483;44.640;7.494;2022-12-07T08:12:01;4.00;99.90
39957;DHT22;48483;44.640;7.494;2022-12-07T08:14:28;4.10;99.90
39957;DHT22;48483;44.640;7.494;2022-12-07T08:16:57;4.20;99.90
39957;DHT22;48483;44.640;7.494;2022-12-07T08:19:23;4.30;99.90
39957;DHT22;48483;44.640;7.494;2022-12-07T08:21:50;4.40;99.90
39957;DHT22;48483;44.640;7.494;2022-12-07T08:24:17;4.40;99.90
39957;DHT22;48483;44.640;7.494;2022-12-07T08:26:43;4.50;99.90
39957;DHT22;48483;44.640;7.494;2022-12-07T08:29:10;4.50;99.90
39957;DHT22;48483;44.640;7.494;2022-12-07T08:31:37;4.60;99.90
39957;DHT22;48483;44.640;7.494;2022-12-07T08:34:05;4.60;99.90
39957;DHT22;48483;44.640;7.494;2022-12-07T08:36:32;4.70;99.90
39957;DHT22;48483;44.640;7.494;2022-12-07T08:38:58;4.70;99.90
39957;DHT22;48483;44.640;7.494;2022-12-07T08:41:25;4.80;99.90
39957;DHT22;48483;44.640;7.494;2022-12-07T08:43:51;4.80;99.90
39957;DHT22;48483;44.640;7.494;2022-12-07T08:46:21;4.90;99.90
39957;DHT22;48483;44.640;7.494;2022-12-07T08:48:52;4.90;99.90
39957;DHT22;48483;44.640;7.494;2022-12-07T08:51:21;4.90;99.90
39957;DHT22;48483;44.640;7.494;2022-12-07T08:53:49;5.00;99.90
39957;DHT22;48483;44.640;7.494;2022-12-07T08:56:16;5.00;99.90
39957;DHT22;48483;44.640;7.494;2022-12-07T08:58:43;5.00;99.90
39957;DHT22;48483;44.640;7.494;2022-12-07T09:01:10;5.00;99.90
39957;DHT22;48483;44.640;7.494;2022-12-07T09:03:37;5.00;99.90
39957;DHT22;48483;44.640;7.494;2022-12-07T09:06:04;5.10;99.90
39957;DHT22;48483;44.640;7.494;2022-12-07T09:08:36;5.10;99.90
39957;DHT22;48483;44.640;7.494;2022-12-07T09:11:05;5.10;99.90
39957;DHT22;48483;44.640;7.494;2022-12-07T09:13:31;5.10;99.90
39957;DHT22;48483;44.640;7.494;2022-12-07T09:15:58;5.10;99.90
39957;DHT22;48483;44.640;7.494;2022-12-07T09:18:24;5.20;99.90
39957;DHT22;48483;44.640;7.494;2022-12-07T09:20:51;5.20;99.90
39957;DHT22;48483;44.640;7.494;2022-12-07T09:23:18;5.20;99.90
39957;DHT22;48483;44.640;7.494;2022-12-07T09:25:46;5.20;99.90
39957;DHT22;48483;44.640;7.494;2022-12-07T09:28:12;5.20;99.90
39957;DHT22;48483;44.640;7.494;2022-12-07T09:30:44;5.20;99.90
39957;DHT22;48483;44.640;7.494;2022-12-07T09:33:11;5.30;99.90
39957;DHT22;48483;44.640;7.494;2022-12-07T09:35:37;5.30;99.90
39957;DHT22;48483;44.640;7.494;2022-12-07T09:38:04;5.30;99.90
39957;DHT22;48483;44.640;7.494;2022-12-07T09:40:33;5.40;99.90
39957;DHT22;48483;44.640;7.494;2022-12-07T09:43:01;5.40;99.90
39957;DHT22;48483;44.640;7.494;2022-12-07T09:45:32;5.40;99.90
39957;DHT22;48483;44.640;7.494;2022-12-07T09:47:59;5.50;99.90
39957;DHT22;48483;44.640;7.494;2022-12-07T09:50:28;5.50;99.90
39957;DHT22;48483;44.640;7.494;2022-12-07T09:53:06;5.50;99.90
39957;DHT22;48483;44.640;7.494;2022-12-07T09:55:34;5.50;99.90
39957;DHT22;48483;44.640;7.494;2022-12-07T09:58:03;5.50;99.90
39957;DHT22;48483;44.640;7.494;2022-12-07T10:00:30;5.60;99.90
39957;DHT22;48483;44.640;7.494;2022-12-07T10:02:59;5.60;99.90
39957;DHT22;48483;44.640;7.494;2022-12-07T10:05:29;5.60;99.90
39957;DHT22;48483;44.640;7.494;2022-12-07T10:07:57;5.60;99.90
39957;DHT22;48483;44.640;7.494;2022-12-07T10:10:26;5.70;99.90
39957;DHT22;48483;44.640;7.494;2022-12-07T10:12:56;5.70;99.90
39957;DHT22;48483;44.640;7.494;2022-12-07T10:15:41;5.70;99.90
39957;DHT22;48483;44.640;7.494;2022-12-07T10:18:27;5.80;99.90
39957;DHT22;48483;44.640;7.494;2022-12-07T10:21:12;5.80;99.90
39957;DHT22;48483;44.640;7.494;2022-12-07T10:23:41;5.90;99.90
39957;DHT22;48483;44.640;7.494;2022-12-07T10:26:27;5.90;99.90
39957;DHT22;48483;44.640;7.494;2022-12-07T10:28:56;6.00;99.90
39957;DHT22;48483;44.640;7.494;2022-12-07T10:31:26;6.00;99.90
39957;DHT22;48483;44.640;7.494;2022-12-07T10:33:55;6.00;99.90
39957;DHT22;48483;44.640;7.494;2022-12-07T10:36:24;6.10;99.90
39957;DHT22;48483;44.640;7.494;2022-12-07T10:38:53;6.10;99.90
39957;DHT22;48483;44.640;7.494;2022-12-07T10:41:20;6.20;99.90
39957;DHT22;48483;44.640;7.494;2022-12-07T10:43:48;6.20;99.90
39957;DHT22;48483;44.640;7.494;2022-12-07T10:46:32;6.20;99.90
39957;DHT22;48483;44.640;7.494;2022-12-07T10:49:13;6.30;99.90
39957;DHT22;48483;44.640;7.494;2022-12-07T10:51:47;6.30;99.90
39957;DHT22;48483;44.640;7.494;2022-12-07T10:54:27;6.30;99.90
39957;DHT22;48483;44.640;7.494;2022-12-07T10:57:19;6.40;99.90
39957;DHT22;48483;44.640;7.494;2022-12-07T11:00:01;6.40;99.90
39957;DHT22;48483;44.640;7.494;2022-12-07T11:02:47;6.50;99.90
39957;DHT22;48483;44.640;7.494;2022-12-07T11:05:23;6.50;99.90
39957;DHT22;48483;44.640;7.494;2022-12-07T11:08:00;6.50;99.90
39957;DHT22;48483;44.640;7.494;2022-12-07T11:10:33;6.50;99.90
39957;DHT22;48483;44.640;7.494;2022-12-07T11:13:17;6.50;99.90
39957;DHT22;48483;44.640;7.494;2022-12-07T11:15:57;6.50;99.90
39957;DHT22;48483;44.640;7.494;2022-12-07T11:18:31;6.50;99.90
39957;DHT22;48483;44.640;7.494;2022-12-07T11:21:09;6.60;99.90
39957;DHT22;48483;44.640;7.494;2022-12-07T11:23:47;6.60;99.90
39957;DHT22;48483;44.640;7.494;2022-12-07T11:26:21;6.70;99.90
39957;DHT22;48483;44.640;7.494;2022-12-07T11:29:08;6.60;99.90
39957;DHT22;48483;44.640;7.494;2022-12-07T11:31:52;6.70;99.90
39957;DHT22;48483;44.640;7.494;2022-12-07T11:34:27;6.80;99.90
39957;DHT22;48483;44.640;7.494;2022-12-07T11:36:56;6.80;99.90
39957;DHT22;48483;44.640;7.494;2022-12-07T11:39:26;6.80;99.90
39957;DHT22;48483;44.640;7.494;2022-12-07T11:42:01;6.80;99.90
39957;DHT22;48483;44.640;7.494;2022-12-07T11:44:33;6.80;99.90
39957;DHT22;48483;44.640;7.494;2022-12-07T11:47:06;6.90;99.90
39957;DHT22;48483;44.640;7.494;2022-12-07T11:49:42;6.90;99.90
39957;DHT22;48483;44.640;7.494;2022-12-07T11:52:20;6.90;99.90
39957;DHT22;48483;44.640;7.494;2022-12-07T11:54:50;6.90;99.90
39957;DHT22;48483;44.640;7.494;2022-12-07T11:57:20;6.90;99.90
39957;DHT22;48483;44.640;7.494;2022-12-07T11:59:51;6.90;99.90
39957;DHT22;48483;44.640;7.494;2022-12-07T12:02:22;7.00;99.90
39957;DHT22;48483;44.640;7.494;2022-12-07T12:04:55;7.00;99.90
39957;DHT22;48483;44.640;7.494;2022-12-07T12:07:25;7.00;99.90
39957;DHT22;48483;44.640;7.494;2022-12-07T12:09:54;7.10;99.90
39957;DHT22;48483;44.640;7.494;2022-12-07T12:12:46;7.10;99.90
39957;DHT22;48483;44.640;7.494;2022-12-07T12:15:29;7.00;99.90
39957;DHT22;48483;44.640;7.494;2022-12-07T12:18:32;7.10;99.90
39957;DHT22;48483;44.640;7.494;2022-12-07T12:21:08;7.10;99.90
39957;DHT22;48483;44.640;7.494;2022-12-07T12:23:41;7.10;99.90
39957;DHT22;48483;44.640;7.494;2022-12-07T12:26:16;7.20;99.90
39957;DHT22;48483;44.640;7.494;2022-12-07T12:28:52;7.20;99.90
39957;DHT22;48483;44.640;7.494;2022-12-07T12:31:32;7.30;99.90
39957;DHT22;48483;44.640;7.494;2022-12-07T12:34:03;7.30;99.90
39957;DHT22;48483;44.640;7.494;2022-12-07T12:36:45;7.30;99.90
39957;DHT22;48483;44.640;7.494;2022-12-07T12:39:13;7.20;99.90
39957;DHT22;48483;44.640;7.494;2022-12-07T12:41:58;7.30;99.90
39957;DHT22;48483;44.640;7.494;2022-12-07T12:45:03;7.30;99.90
39957;DHT22;48483;44.640;7.494;2022-12-07T12:50:32;7.30;99.90
39957;DHT22;48483;44.640;7.494;2022-12-07T12:53:03;7.40;99.90
39957;DHT22;48483;44.640;7.494;2022-12-07T12:58:36;7.40;99.90
39957;DHT22;48483;44.640;7.494;2022-12-07T13:04:38;7.50;99.90
39957;DHT22;48483;44.640;7.494;2022-12-07T13:07:13;7.50;99.90
39957;DHT22;48483;44.640;7.494;2022-12-07T13:10:01;7.50;99.90
39957;DHT22;48483;44.640;7.494;2022-12-07T13:12:28;7.50;99.90
39957;DHT22;48483;44.640;7.494;2022-12-07T13:14:58;7.50;99.90
39957;DHT22;48483;44.640;7.494;2022-12-07T13:20:46;7.50;99.90
39957;DHT22;48483;44.640;7.494;2022-12-07T13:23:16;7.50;99.90
39957;DHT22;48483;44.640;7.494;2022-12-07T13:25:51;7.60;99.90
39957;DHT22;48483;44.640;7.494;2022-12-07T13:28:22;7.60;99.90
39957;DHT22;48483;44.640;7.494;2022-12-07T13:31:12;7.60;99.90
39957;DHT22;48483;44.640;7.494;2022-12-07T13:33:43;7.70;99.90
39957;DHT22;48483;44.640;7.494;2022-12-07T13:36:16;7.60;99.90
39957;DHT22;48483;44.640;7.494;2022-12-07T13:38:50;7.60;99.90
39957;DHT22;48483;44.640;7.494;2022-12-07T13:41:19;7.60;99.90
39957;DHT22;48483;44.640;7.494;2022-12-07T13:43:50;7.60;99.90
39957;DHT22;48483;44.640;7.494;2022-12-07T13:46:17;7.70;99.90
39957;DHT22;48483;44.640;7.494;2022-12-07T13:48:47;7.70;99.90
39957;DHT22;48483;44.640;7.494;2022-12-07T13:51:19;7.70;99.90
39957;DHT22;48483;44.640;7.494;2022-12-07T13:53:48;7.70;99.90
39957;DHT22;48483;44.640;7.494;2022-12-07T13:56:15;7.70;99.90
39957;DHT22;48483;44.640;7.494;2022-12-07T13:58:44;7.70;99.90
39957;DHT22;48483;44.640;7.494;2022-12-07T14:01:11;7.70;99.90
39957;DHT22;48483;44.640;7.494;2022-12-07T14:03:39;7.70;99.90
39957;DHT22;48483;44.640;7.494;2022-12-07T14:06:22;7.70;99.90
39957;DHT22;48483;44.640;7.494;2022-12-07T14:09:07;7.70;99.90
39957;DHT22;48483;44.640;7.494;2022-12-07T14:11:33;7.70;99.90
39957;DHT22;48483;44.640;7.494;2022-12-07T14:14:03;7.70;99.90
39957;DHT22;48483;44.640;7.494;2022-12-07T14:16:33;7.80;99.90
39957;DHT22;48483;44.640;7.494;2022-12-07T14:19:03;7.80;99.90
39957;DHT22;48483;44.640;7.494;2022-12-07T14:21:32;7.80;99.90
39957;DHT22;48483;44.640;7.494;2022-12-07T14:24:11;7.80;99.90
39957;DHT22;48483;44.640;7.494;2022-12-07T14:26:39;7.80;99.90
39957;DHT22;48483;44.640;7.494;2022-12-07T14:29:27;7.80;99.90
39957;DHT22;48483;44.640;7.494;2022-12-07T14:31:57;7.70;99.90
39957;DHT22;48483;44.640;7.494;2022-12-07T14:34:25;7.70;99.90
39957;DHT22;48483;44.640;7.494;2022-12-07T14:36:51;7.70;99.90
39957;DHT22;48483;44.640;7.494;2022-12-07T14:39:18;7.70;99.90
39957;DHT22;48483;44.640;7.494;2022-12-07T14:41:45;7.70;99.90
39957;DHT22;48483;44.640;7.494;2022-12-07T14:44:21;7.70;99.90
39957;DHT22;48483;44.640;7.494;2022-12-07T14:46:49;7.60;99.90
39957;DHT22;48483;44.640;7.494;2022-12-07T14:49:17;7.60;99.90
39957;DHT22;48483;44.640;7.494;2022-12-07T14:51:45;7.60;99.90
39957;DHT22;48483;44.640;7.494;2022-12-07T14:54:15;7.60;99.90
39957;DHT22;48483;44.640;7.494;2022-12-07T14:56:43;7.60;99.90
39957;DHT22;48483;44.640;7.494;2022-12-07T14:59:10;7.60;99.90
39957;DHT22;48483;44.640;7.494;2022-12-07T15:01:39;7.50;99.90
39957;DHT22;48483;44.640;7.494;2022-12-07T15:04:06;7.40;99.90
39957;DHT22;48483;44.640;7.494;2022-12-07T15:06:33;7.40;99.90
39957;DHT22;48483;44.640;7.494;2022-12-07T15:09:00;7.30;99.90
39957;DHT22;48483;44.640;7.494;2022-12-07T15:11:26;7.30;99.90
39957;DHT22;48483;44.640;7.494;2022-12-07T15:13:53;7.20;99.90
39957;DHT22;48483;44.640;7.494;2022-12-07T15:16:35;7.20;99.90
39957;DHT22;48483;44.640;7.494;2022-12-07T15:19:03;7.20;99.90
39957;DHT22;48483;44.640;7.494;2022-12-07T15:21:30;7.10;99.90
39957;DHT22;48483;44.640;7.494;2022-12-07T15:23:57;7.10;99.90
39957;DHT22;48483;44.640;7.494;2022-12-07T15:26:23;7.10;99.90
39957;DHT22;48483;44.640;7.494;2022-12-07T15:28:52;7.00;99.90
39957;DHT22;48483;44.640;7.494;2022-12-07T15:31:18;7.00;99.90
39957;DHT22;48483;44.640;7.494;2022-12-07T15:33:45;7.00;99.90
39957;DHT22;48483;44.640;7.494;2022-12-07T15:36:19;6.90;99.90
39957;DHT22;48483;44.640;7.494;2022-12-07T15:38:47;6.90;99.90
39957;DHT22;48483;44.640;7.494;2022-12-07T15:41:14;6.80;99.90
39957;DHT22;48483;44.640;7.494;2022-12-07T15:43:41;6.80;99.90
39957;DHT22;48483;44.640;7.494;2022-12-07T15:46:30;6.80;99.90
39957;DHT22;48483;44.640;7.494;2022-12-07T15:48:57;6.70;99.90
39957;DHT22;48483;44.640;7.494;2022-12-07T15:51:25;6.70;99.90
39957;DHT22;48483;44.640;7.494;2022-12-07T15:53:52;6.60;99.90
39957;DHT22;48483;44.640;7.494;2022-12-07T15:56:18;6.60;99.90
39957;DHT22;48483;44.640;7.494;2022-12-07T15:58:45;6.60;99.90
39957;DHT22;48483;44.640;7.494;2022-12-07T16:01:13;6.60;99.90
39957;DHT22;48483;44.640;7.494;2022-12-07T16:03:40;6.50;99.90
39957;DHT22;48483;44.640;7.494;2022-12-07T16:06:06;6.40;99.90
39957;DHT22;48483;44.640;7.494;2022-12-07T16:08:35;6.40;99.90
39957;DHT22;48483;44.640;7.494;2022-12-07T16:11:05;6.40;99.90
39957;DHT22;48483;44.640;7.494;2022-12-07T16:13:32;6.30;99.90
39957;DHT22;48483;44.640;7.494;2022-12-07T16:16:02;6.30;99.90
39957;DHT22;48483;44.640;7.494;2022-12-07T16:18:29;6.30;99.90
39957;DHT22;48483;44.640;7.494;2022-12-07T16:20:56;6.30;99.90
39957;DHT22;48483;44.640;7.494;2022-12-07T16:23:22;6.30;99.90